地図

経路データ

SID SEASON NUMBER BASIN SUBBASIN NAME ISO_TIME NATURE LAT LON WMO_WIND WMO_PRES WMO_AGENCY TRACK_TYPE DIST2LAND LANDFALL IFLAG USA_AGENCY USA_ATCF_ID USA_LAT USA_LON USA_RECORD USA_STATUS USA_WIND USA_PRES USA_SSHS USA_R34_NE USA_R34_SE USA_R34_SW USA_R34_NW USA_R50_NE USA_R50_SE USA_R50_SW USA_R50_NW USA_R64_NE USA_R64_SE USA_R64_SW USA_R64_NW USA_POCI USA_ROCI USA_RMW USA_EYE TOKYO_LAT TOKYO_LON TOKYO_GRADE TOKYO_WIND TOKYO_PRES TOKYO_R50_DIR TOKYO_R50_LONG TOKYO_R50_SHORT TOKYO_R30_DIR TOKYO_R30_LONG TOKYO_R30_SHORT TOKYO_LAND CMA_LAT CMA_LON CMA_CAT CMA_WIND CMA_PRES HKO_LAT HKO_LON HKO_CAT HKO_WIND HKO_PRES NEWDELHI_LAT NEWDELHI_LON NEWDELHI_GRADE NEWDELHI_WIND NEWDELHI_PRES NEWDELHI_CI NEWDELHI_DP NEWDELHI_POCI REUNION_LAT REUNION_LON REUNION_TYPE REUNION_WIND REUNION_PRES REUNION_TNUM REUNION_CI REUNION_RMW REUNION_R34_NE REUNION_R34_SE REUNION_R34_SW REUNION_R34_NW REUNION_R50_NE REUNION_R50_SE REUNION_R50_SW REUNION_R50_NW REUNION_R64_NE REUNION_R64_SE REUNION_R64_SW REUNION_R64_NW BOM_LAT BOM_LON BOM_TYPE BOM_WIND BOM_PRES BOM_TNUM BOM_CI BOM_RMW BOM_R34_NE BOM_R34_SE BOM_R34_SW BOM_R34_NW BOM_R50_NE BOM_R50_SE BOM_R50_SW BOM_R50_NW BOM_R64_NE BOM_R64_SE BOM_R64_SW BOM_R64_NW BOM_ROCI BOM_POCI BOM_EYE BOM_POS_METHOD BOM_PRES_METHOD NADI_LAT NADI_LON NADI_CAT NADI_WIND NADI_PRES WELLINGTON_LAT WELLINGTON_LON WELLINGTON_WIND WELLINGTON_PRES DS824_LAT DS824_LON DS824_STAGE DS824_WIND DS824_PRES TD9636_LAT TD9636_LON TD9636_STAGE TD9636_WIND TD9636_PRES TD9635_LAT TD9635_LON TD9635_WIND TD9635_PRES TD9635_ROCI NEUMANN_LAT NEUMANN_LON NEUMANN_CLASS NEUMANN_WIND NEUMANN_PRES MLC_LAT MLC_LON MLC_CLASS MLC_WIND MLC_PRES USA_GUST BOM_GUST BOM_GUST_PER REUNION_GUST REUNION_GUST_PER USA_SEAHGT USA_SEARAD_NE USA_SEARAD_SE USA_SEARAD_SW USA_SEARAD_NW STORM_SPEED STORM_DIR
1989053S14210 1989 16 SP MM JUDY 1989-02-22 00:00:00 NR -14.4000 -150.500 30 997 wellington main 2341 2298 ________O_____ -1 -14.4000 -150.500 30 997 14 221
1989053S14210 1989 16 SP MM JUDY 1989-02-22 03:00:00 NR -14.9246 -150.974 main 2287 2245 ________P_____ -1 -14.9246 -150.974 30 997 14 220
1989053S14210 1989 16 SP MM JUDY 1989-02-22 06:00:00 NR -15.4589 -151.409 main 2245 2215 ________P_____ -1 -15.4589 -151.409 30 997 13 215
1989053S14210 1989 16 SP MM JUDY 1989-02-22 09:00:00 NR -16.0137 -151.765 main 2205 2187 ________P_____ -1 -16.0137 -151.765 30 997 13 206
1989053S14210 1989 16 SP MM JUDY 1989-02-22 12:00:00 NR -16.6000 -152.000 30 997 wellington main 2189 2181 ________O_____ -1 -16.6000 -152.000 30 997 13 194
1989053S14210 1989 16 SP MM JUDY 1989-02-22 15:00:00 NR -17.2217 -152.089 main 2186 2186 ________P_____ -1 -17.2217 -152.089 31 996 13 183
1989053S14210 1989 16 SP MM JUDY 1989-02-22 18:00:00 NR -17.8519 -152.078 main 2197 2197 ________P_____ -1 -17.8519 -152.078 32 996 12 177
1989053S14210 1989 16 SP MM JUDY 1989-02-22 21:00:00 NR -18.4562 -152.027 main 2219 2219 ________P_____ -1 -18.4562 -152.027 33 995 12 177
1989053S14210 1989 16 SP MM JUDY 1989-02-23 00:00:00 NR -19.0000 -152.000 35 995 wellington main 2230 2230 ________O_____ -1 -19.0000 -152.000 35 995 10 0
1989053S14210 1989 16 SP MM JUDY 1989-02-23 03:00:00 NR -19.4312 -152.049 main 2240 2232 ________P_____ -1 -19.4312 -152.049 36 993 8 189
1989053S14210 1989 16 SP MM JUDY 1989-02-23 06:00:00 NR -19.8019 -152.139 main 2240 2229 ________P_____ -1 -19.8019 -152.139 37 992 8 197
1989053S14210 1989 16 SP MM JUDY 1989-02-23 09:00:00 NR -20.1467 -152.284 main 2229 2218 ________P_____ -1 -20.1467 -152.284 38 991 8 206
1989053S14210 1989 16 SP MM JUDY 1989-02-23 12:00:00 NR -20.5000 -152.500 40 990 wellington main 2221 2204 ________O_____ -1 -20.5000 -152.500 40 990 10 213
1989053S14210 1989 16 SP MM JUDY 1989-02-23 15:00:00 NR -20.9643 -152.850 main 2208 2154 ________P_____ -1 -20.9643 -152.850 41 989 13 224
1989053S14210 1989 16 SP MM JUDY 1989-02-23 18:00:00 TS -21.4622 -153.493 main 2158 2137 O_______P_O_O_ jtwc_sh SH151989 -21.5000 -153.800 35 0 -21.4338 -153.262 42 988 -21.5000 -153.800 2 35 -21.5000 -153.800 TC 35 13 228
1989053S14210 1989 16 SP MM JUDY 1989-02-23 21:00:00 TS -21.7926 -153.856 main 2131 2121 P_______P_P_P_ SH151989 -21.7476 -153.985 35 0 -21.8612 -153.669 43 987 -21.7454 -153.971 2 35 -21.7476 -153.985 TC 35 8 222
1989053S14210 1989 16 SP MM JUDY 1989-02-24 00:00:00 TS -22.0615 -154.069 45 987 wellington main 2125 2125 O_______O_O_O_ jtwc_sh SH151989 -22.0000 -154.100 35 0 -22.2000 -154.000 45 987 -22.0000 -154.100 2 35 -22.0000 -154.100 TC 35 6 207
1989053S14210 1989 16 SP MM JUDY 1989-02-24 03:00:00 TS -22.2937 -154.130 main 2134 2134 P_______P_P_P_ SH151989 -22.2575 -154.108 40 0 -22.3928 -154.146 46 986 -22.2671 -154.160 2 40 -22.2575 -154.108 TC 40 5 189
1989053S14210 1989 16 SP MM JUDY 1989-02-24 06:00:00 TS -22.5054 -154.148 main 2143 2133 O_______P_P_O_ jtwc_sh SH151989 -22.5000 -154.100 45 0 -22.4967 -154.212 47 986 -22.5248 -154.182 2 45 -22.5000 -154.100 TC 45 4 190
1989053S14210 1989 16 SP MM JUDY 1989-02-24 09:00:00 TS -22.6894 -154.200 main 2143 2138 P_______P_P_P_ SH151989 -22.7300 -154.170 50 0 -22.5523 -154.246 48 985 -22.7452 -154.213 2 50 -22.7300 -154.170 TC 50 4 204
1989053S14210 1989 16 SP MM JUDY 1989-02-24 12:00:00 TS -22.8250 -154.300 50 985 wellington main 2138 2124 O_______O_O_O_ jtwc_sh SH151989 -22.9000 -154.300 55 0 -22.6000 -154.300 50 985 -22.9000 -154.300 2 55 -22.9000 -154.300 TC 55 3 227
1989053S14210 1989 16 SP MM JUDY 1989-02-24 15:00:00 TS -22.9149 -154.466 main 2124 2111 P_______P_P_P_ SH151989 -22.9800 -154.478 60 0 -22.7243 -154.430 51 983 -22.9753 -154.477 2 60 -22.9800 -154.478 TC 60 4 248
1989053S14210 1989 16 SP MM JUDY 1989-02-24 18:00:00 TS -22.9612 -154.672 main 2111 2092 O_______P_O_O_ jtwc_sh SH151989 -23.0000 -154.700 65 1 -22.8448 -154.590 52 982 -23.0000 -154.700 3 65 -23.0000 -154.700 TC 65 4 258
1989053S14210 1989 16 SP MM JUDY 1989-02-24 21:00:00 TS -22.9971 -154.902 main 2092 2074 P_______P_P_P_ SH151989 -23.0150 -154.942 67 1 -22.9430 -154.780 53 981 -23.0155 -154.942 3 67 -23.0150 -154.942 TC 67 4 265
1989053S14210 1989 16 SP MM JUDY 1989-02-25 00:00:00 TS -23.0000 -155.150 55 980 wellington main 2065 2047 O_______O_O_O_ jtwc_sh SH151989 -23.0000 -155.200 70 1 -23.0000 -155.000 55 980 -23.0000 -155.200 4 70 -23.0000 -155.200 TC 70 5 273
1989053S14210 1989 16 SP MM JUDY 1989-02-25 03:00:00 TS -22.9714 -155.397 main 2047 2023 P_______P_P_P_ SH151989 -22.9650 -155.450 72 1 -23.0012 -155.238 56 978 -22.9543 -155.450 4 72 -22.9650 -155.450 TC 72 5 281
1989053S14210 1989 16 SP MM JUDY 1989-02-25 06:00:00 TS -22.9101 -155.651 main 2014 1991 O_______P_P_O_ jtwc_sh SH151989 -22.9000 -155.700 75 1 -22.9599 -155.505 57 977 -22.8806 -155.700 4 75 -22.9000 -155.700 TC 75 5 287
1989053S14210 1989 16 SP MM JUDY 1989-02-25 09:00:00 TS -22.8238 -155.911 main 1991 1958 P_______P_P_P_ SH151989 -22.8075 -155.950 77 1 -22.8886 -155.794 58 976 -22.7915 -155.950 4 77 -22.8075 -155.950 TC 77 5 291
1989053S14210 1989 16 SP MM JUDY 1989-02-25 12:00:00 TS -22.7250 -156.175 60 975 wellington main 1958 1935 O_______O_O_O_ jtwc_sh SH151989 -22.7000 -156.200 80 1 -22.8000 -156.100 60 975 -22.7000 -156.200 4 80 -22.7000 -156.200 TC 80 5 292
1989053S14210 1989 16 SP MM JUDY 1989-02-25 15:00:00 TS -22.6250 -156.442 main 1935 1903 P_______P_P_P_ SH151989 -22.5925 -156.450 82 1 -22.7023 -156.423 61 973 -22.6127 -156.446 4 82 -22.5925 -156.450 TC 82 5 291
1989053S14210 1989 16 SP MM JUDY 1989-02-25 18:00:00 TS -22.5300 -156.713 main 1903 1876 O_______P_P_O_ jtwc_sh SH151989 -22.5000 -156.700 85 2 -22.5927 -156.758 62 972 -22.5273 -156.693 4 85 -22.5000 -156.700 TC 85 5 289
1989053S14210 1989 16 SP MM JUDY 1989-02-25 21:00:00 TS -22.4525 -156.983 main 1876 1852 P_______P_P_P_ SH151989 -22.4350 -156.950 87 2 -22.4867 -157.089 63 971 -22.4533 -156.943 4 87 -22.4350 -156.950 TC 87 5 285
1989053S14210 1989 16 SP MM JUDY 1989-02-26 00:00:00 TS -22.4000 -157.250 65 970 wellington main 1852 1825 O_______O_O_O_ jtwc_sh SH151989 -22.4000 -157.200 90 2 -22.4000 -157.400 65 970 -22.4000 -157.200 4 90 -22.4000 -157.200 TC 90 5 280
1989053S14210 1989 16 SP MM JUDY 1989-02-26 03:00:00 TS -22.3699 -157.503 main 1825 1807 P_______P_P_P_ SH151989 -22.3924 -157.442 87 2 -22.3328 -157.667 66 968 -22.3620 -157.460 4 87 -22.3924 -157.442 TC 87 5 275
1989053S14210 1989 16 SP MM JUDY 1989-02-26 06:00:00 TS -22.3592 -157.761 main 1798 1781 O_______P_P_O_ jtwc_sh SH151989 -22.4000 -157.700 85 2 -22.2896 -157.915 67 967 -22.3472 -157.728 4 85 -22.4000 -157.700 TC 85 5 272
1989053S14210 1989 16 SP MM JUDY 1989-02-26 09:00:00 TS -22.3551 -158.037 main 1781 1754 P_______P_P_P_ SH151989 -22.3925 -157.993 82 1 -22.2766 -158.155 68 966 -22.3588 -158.007 4 82 -22.3925 -157.993 TC 82 5 268
1989053S14210 1989 16 SP MM JUDY 1989-02-26 12:00:00 TS -22.3750 -158.325 70 965 wellington main 1754 1728 O_______O_O_O_ jtwc_sh SH151989 -22.4000 -158.300 80 1 -22.3000 -158.400 70 965 -22.4000 -158.300 4 80 -22.4000 -158.300 TC 80 5 265
1989053S14210 1989 16 SP MM JUDY 1989-02-26 15:00:00 TS -22.3982 -158.620 main 1728 1701 P_______P_P_P_ SH151989 -22.4274 -158.593 77 1 -22.3274 -158.664 67 967 -22.4105 -158.631 4 78 -22.4274 -158.593 TC 77 6 261
1989053S14210 1989 16 SP MM JUDY 1989-02-26 18:00:00 TS -22.4632 -158.927 main 1707 1681 O_______P_P_O_ jtwc_sh SH151989 -22.5000 -158.900 75 1 -22.3948 -158.936 65 970 -22.4578 -158.973 4 77 -22.5000 -158.900 TC 75 6 254
1989053S14210 1989 16 SP MM JUDY 1989-02-26 21:00:00 TS -22.5715 -159.258 main 1679 1666 P_______P_P_P_ SH151989 -22.5976 -159.258 75 1 -22.5149 -159.214 62 972 -22.5762 -159.303 4 76 -22.5976 -159.258 TC 75 7 242
1989053S14210 1989 16 SP MM JUDY 1989-02-27 00:00:00 TS -22.7750 -159.575 60 975 wellington main 1666 1654 O_______O_O_O_ jtwc_sh SH151989 -22.8000 -159.600 75 1 -22.7000 -159.500 60 975 -22.8000 -159.600 4 75 -22.8000 -159.600 TC 75 7 232
1989053S14210 1989 16 SP MM JUDY 1989-02-27 03:00:00 TS -23.0128 -159.877 main 1654 1651 P_______P_P_P_ SH151989 -23.1399 -159.880 67 1 -22.7370 -159.839 56 978 -23.0344 -159.910 4 67 -23.1399 -159.880 TC 67 8 221
1989053S14210 1989 16 SP MM JUDY 1989-02-27 06:00:00 TS -23.3656 -160.138 main 1665 1657 O_______P_P_O_ jtwc_sh SH151989 -23.6000 -160.100 60 0 -22.8701 -160.176 52 981 -23.3923 -160.175 4 60 -23.6000 -160.100 TC 60 9 209
1989053S14210 1989 16 SP MM JUDY 1989-02-27 09:00:00 TS -23.8155 -160.362 main 1669 1669 P_______P_P_P_ SH151989 -24.0450 -160.309 52 0 -23.2430 -160.476 48 984 -23.9289 -160.352 4 52 -24.0450 -160.309 TC 52 12 196
1989053S14210 1989 16 SP MM JUDY 1989-02-27 12:00:00 TS -24.4846 -160.492 45 987 wellington main 1713 1713 O_______O_O_O_ jtwc_sh SH151989 -24.7000 -160.400 45 0 -24.0000 -160.700 45 987 -24.7000 -160.400 2 45 -24.7000 -160.400 TC 45 17 185
1989053S14210 1989 16 SP MM JUDY 1989-02-27 15:00:00 TS -25.5310 -160.535 main 1790 1790 P_______P_P_P_ SH151989 -25.6976 -160.307 37 0 -25.2661 -160.883 42 988 -25.7277 -160.295 2 37 -25.6976 -160.307 TC 37 23 181
1989053S14210 1989 16 SP MM JUDY 1989-02-27 18:00:00 TS -26.8000 -160.500 40 990 wellington main 1895 1895 O_______O_O_O_ jtwc_sh SH151989 -26.9000 -160.100 30 -1 -26.7000 -160.900 40 990 -26.9000 -160.100 1 30 -26.9000 -160.100 TC 30 25 183
1989053S14210 1989 16 SP MM JUDY 1989-02-27 21:00:00 NR -28.0031 -160.675 main 1984 1984 ________P_____ SH151989 -1 -28.0031 -160.675 37 992 1 TC 24 176
1989053S14210 1989 16 SP MM JUDY 1989-02-28 00:00:00 NR -29.2000 -160.300 35 995 wellington main 2113 ________O_____ -1 -29.2000 -160.300 35 995 25 165

デジタル台風データ・検索

IBTrACS Databaseについて

本データベースは、米国NOAAが公開する1842年以降の世界の熱帯低気圧のベストトラックデータアーカイブInternational Best Track Archive for Climate Stewardship (IBTrACS)を、ウェブで閲覧しやすい形式に変換したものです。

最終更新日:2021-12-03